createdAt,value
2024-04-18T00:00:21.242Z,5.38
2024-04-18T00:03:09.135Z,6.78
2024-04-18T00:05:37.860Z,6.20
2024-04-18T00:08:06.204Z,5.22
2024-04-18T00:10:34.782Z,5.23
2024-04-18T00:13:02.700Z,4.85
2024-04-18T00:15:31.077Z,4.88
2024-04-18T00:18:00.185Z,4.95
2024-04-18T00:20:29.386Z,5.00
2024-04-18T00:23:17.233Z,4.65
2024-04-18T00:26:05.594Z,4.82
2024-04-18T00:28:33.568Z,4.97
2024-04-18T00:31:16.198Z,5.07
2024-04-18T00:33:57.868Z,5.18
2024-04-18T00:36:29.898Z,4.72
2024-04-18T00:38:57.905Z,4.80
2024-04-18T00:41:26.265Z,4.90
2024-04-18T00:44:03.322Z,4.95
2024-04-18T00:46:35.654Z,5.18
2024-04-18T00:49:23.803Z,5.13
2024-04-18T00:51:55.209Z,4.97
2024-04-18T00:54:23.859Z,4.97
2024-04-18T00:57:00.246Z,4.78
2024-04-18T00:59:28.299Z,5.40
2024-04-18T01:02:29.302Z,4.93
2024-04-18T01:05:29.600Z,4.50
2024-04-18T01:07:57.974Z,5.07
2024-04-18T01:10:25.917Z,5.25
2024-04-18T01:13:01.660Z,4.78
2024-04-18T01:16:05.380Z,5.25
2024-04-18T01:18:34.088Z,4.82
2024-04-18T01:21:15.752Z,5.28
2024-04-18T01:23:44.134Z,5.32
2024-04-18T01:26:12.641Z,4.78
2024-04-18T01:28:40.979Z,5.37
2024-04-18T01:31:08.902Z,5.78
2024-04-18T01:33:37.403Z,5.03
2024-04-18T01:36:05.437Z,5.20
2024-04-18T01:38:52.371Z,5.05
2024-04-18T01:41:31.339Z,4.90
2024-04-18T01:44:02.839Z,4.50
2024-04-18T01:46:49.173Z,5.13
2024-04-18T01:49:32.660Z,4.85
2024-04-18T01:52:00.655Z,4.80
2024-04-18T01:54:35.578Z,4.85
2024-04-18T01:57:03.573Z,4.78
2024-04-18T01:59:50.765Z,4.90
2024-04-18T02:02:19.542Z,4.50
2024-04-18T02:05:07.068Z,4.50
2024-04-18T02:07:44.652Z,4.50
2024-04-18T02:10:13.106Z,4.65
2024-04-18T02:12:59.887Z,4.68
2024-04-18T02:15:46.436Z,4.68
2024-04-18T02:18:17.072Z,4.50
2024-04-18T02:20:45.485Z,4.32
2024-04-18T02:23:25.585Z,4.53
2024-04-18T02:25:53.959Z,4.43
2024-04-18T02:28:22.751Z,4.65
2024-04-18T02:31:11.079Z,4.60
2024-04-18T02:36:19.750Z,4.03
2024-04-18T02:38:47.664Z,4.82
2024-04-18T02:41:15.991Z,4.32
2024-04-18T02:43:55.316Z,4.38
2024-04-18T02:46:25.076Z,4.38
2024-04-18T02:49:11.912Z,4.22
2024-04-18T02:52:00.553Z,4.40
2024-04-18T02:54:46.718Z,4.30
2024-04-18T02:57:15.323Z,4.88
2024-04-18T02:59:43.264Z,4.60
2024-04-18T03:02:26.946Z,4.15
2024-04-18T03:05:33.787Z,4.75
2024-04-18T03:08:02.206Z,4.57
2024-04-18T03:10:52.625Z,3.85
2024-04-18T03:13:39.427Z,4.25
2024-04-18T03:16:27.402Z,4.25
2024-04-18T03:18:55.935Z,4.50
2024-04-18T03:21:23.847Z,4.00
2024-04-18T03:23:52.294Z,3.63
2024-04-18T03:26:38.766Z,4.00
2024-04-18T03:29:07.240Z,4.40
2024-04-18T03:31:55.122Z,4.63
2024-04-18T03:34:43.652Z,4.32
2024-04-18T03:37:11.738Z,4.80
2024-04-18T03:39:40.195Z,5.57
2024-04-18T03:42:08.508Z,5.15
2024-04-18T03:44:58.755Z,4.10
2024-04-18T03:47:26.799Z,4.18
2024-04-18T03:50:10.445Z,4.47
2024-04-18T03:52:42.104Z,4.38
2024-04-18T03:55:29.004Z,3.92
2024-04-18T03:57:57.010Z,4.63
2024-04-18T04:00:43.924Z,4.10
2024-04-18T04:03:12.281Z,4.07
2024-04-18T04:05:40.857Z,4.10
2024-04-18T04:08:08.835Z,4.10
2024-04-18T04:10:43.816Z,3.70
2024-04-18T04:13:12.124Z,3.92
2024-04-18T04:15:53.150Z,3.53
2024-04-18T04:18:39.832Z,3.75
2024-04-18T04:21:26.983Z,4.18
2024-04-18T04:23:55.500Z,3.67
2024-04-18T04:26:43.771Z,3.83
2024-04-18T04:29:11.782Z,4.15
2024-04-18T04:31:40.113Z,4.07
2024-04-18T04:34:08.701Z,3.80
2024-04-18T04:36:37.161Z,4.20
2024-04-18T04:39:05.161Z,6.18
2024-04-18T04:41:41.363Z,5.13
2024-04-18T04:44:09.411Z,4.45
2024-04-18T04:46:50.836Z,4.20
2024-04-18T04:49:19.823Z,4.00
2024-04-18T04:52:05.560Z,4.07
2024-04-18T04:54:45.458Z,4.53
2024-04-18T04:57:15.407Z,4.45
2024-04-18T04:59:44.659Z,6.07
2024-04-18T05:02:13.266Z,4.90
2024-04-18T05:04:53.846Z,4.88
2024-04-18T05:07:35.168Z,4.20
2024-04-18T05:10:21.698Z,3.50
2024-04-18T05:12:51.795Z,3.53
2024-04-18T05:15:35.710Z,3.97
2024-04-18T05:18:05.389Z,4.53
2024-04-18T05:20:33.555Z,4.20
2024-04-18T05:23:01.875Z,4.30
2024-04-18T05:25:29.813Z,4.20
2024-04-18T05:28:42.524Z,3.78
2024-04-18T05:31:10.605Z,4.40
2024-04-18T05:33:39.336Z,3.97
2024-04-18T05:36:07.768Z,4.00
2024-04-18T05:38:36.142Z,4.10
2024-04-18T05:41:04.217Z,4.07
2024-04-18T05:43:50.685Z,3.92
2024-04-18T05:46:18.680Z,4.00
2024-04-18T05:48:47.053Z,4.28
2024-04-18T05:51:15.457Z,3.92
2024-04-18T05:54:02.584Z,4.20
2024-04-18T05:56:30.984Z,3.85
2024-04-18T05:58:59.391Z,4.07
2024-04-18T06:01:27.469Z,3.88
2024-04-18T06:03:55.893Z,4.20
2024-04-18T06:06:23.979Z,3.78
2024-04-18T06:08:55.543Z,3.60
2024-04-18T06:11:36.728Z,3.33
2024-04-18T06:14:20.369Z,3.92
2024-04-18T06:16:48.374Z,3.05
2024-04-18T06:19:16.900Z,3.53
2024-04-18T06:21:44.885Z,3.40
2024-04-18T06:24:13.339Z,3.10
2024-04-18T06:26:44.760Z,3.67
2024-04-18T06:29:13.222Z,3.30
2024-04-18T06:31:41.212Z,3.53
2024-04-18T06:34:10.061Z,3.80
2024-04-18T06:36:38.086Z,3.88
2024-04-18T06:39:08.983Z,3.50
2024-04-18T06:41:37.867Z,3.10
2024-04-18T06:44:07.669Z,3.42
2024-04-18T06:46:45.462Z,3.65
2024-04-18T06:49:21.320Z,3.38
2024-04-18T06:51:49.260Z,3.53
2024-04-18T06:54:17.645Z,3.00
2024-04-18T06:56:45.710Z,3.20
2024-04-18T06:59:14.085Z,3.70
2024-04-18T07:01:42.049Z,3.35
2024-04-18T07:04:10.725Z,3.88
2024-04-18T07:06:39.058Z,4.00
2024-04-18T07:09:07.739Z,3.65
2024-04-18T07:11:44.617Z,3.58
2024-04-18T07:14:13.255Z,3.88
2024-04-18T07:16:41.199Z,3.92
2024-04-18T07:19:28.159Z,3.95
2024-04-18T07:21:56.133Z,4.18
2024-04-18T07:24:27.633Z,4.28
2024-04-18T07:26:57.073Z,4.15
2024-04-18T07:29:25.732Z,3.92
2024-04-18T07:31:53.732Z,4.30
2024-04-18T07:34:22.270Z,4.10
2024-04-18T07:36:50.612Z,4.28
2024-04-18T07:39:20.204Z,4.40
2024-04-18T07:41:48.622Z,4.28
2024-04-18T07:44:18.730Z,4.15
2024-04-18T07:46:49.393Z,4.50
2024-04-18T07:49:17.938Z,4.95
2024-04-18T07:51:46.463Z,4.82
2024-04-18T07:54:15.968Z,4.53
2024-04-18T07:56:44.611Z,4.80
2024-04-18T07:59:15.476Z,4.93
2024-04-18T08:01:45.140Z,3.35
2024-04-18T08:06:47.228Z,2.70
2024-04-18T08:09:19.990Z,3.00
2024-04-18T08:14:25.054Z,2.65
2024-04-18T08:16:56.615Z,2.90
2024-04-18T08:19:25.025Z,3.90
2024-04-18T08:21:53.120Z,3.10
2024-04-18T08:24:29.098Z,3.65
2024-04-18T08:27:12.755Z,3.80
2024-04-18T08:29:41.246Z,2.85
2024-04-18T08:32:09.377Z,3.28
2024-04-18T08:34:41.116Z,3.30
2024-04-18T08:37:11.131Z,3.25
2024-04-18T08:39:39.666Z,3.20
2024-04-18T08:42:11.651Z,3.17
2024-04-18T08:44:40.887Z,3.40
2024-04-18T08:47:09.962Z,3.00
2024-04-18T08:49:39.697Z,2.83
2024-04-18T08:52:08.487Z,3.13
2024-04-18T08:54:38.022Z,3.25
2024-04-18T08:57:07.731Z,3.03
2024-04-18T08:59:36.304Z,3.65
2024-04-18T09:02:04.881Z,2.60
2024-04-18T09:04:36.342Z,3.00
2024-04-18T09:07:04.703Z,2.75
2024-04-18T09:09:33.293Z,3.03
2024-04-18T09:12:04.203Z,2.72
2024-04-18T09:14:34.146Z,2.70
2024-04-18T09:17:02.198Z,2.90
2024-04-18T09:19:30.646Z,2.50
2024-04-18T09:22:02.120Z,2.70
2024-04-18T09:24:30.990Z,2.80
2024-04-18T09:26:59.539Z,2.50
2024-04-18T09:29:28.115Z,2.65
2024-04-18T09:31:57.493Z,2.47
2024-04-18T09:34:26.050Z,2.85
2024-04-18T09:36:54.197Z,2.80
2024-04-18T09:39:29.572Z,2.50
2024-04-18T09:42:14.249Z,2.60
2024-04-18T09:44:44.837Z,2.67
2024-04-18T09:47:13.295Z,2.50
2024-04-18T09:49:42.324Z,2.70
2024-04-18T09:52:10.888Z,2.75
2024-04-18T09:54:39.731Z,2.63
2024-04-18T09:57:08.385Z,2.28
2024-04-18T09:59:37.839Z,2.73
2024-04-18T10:02:09.412Z,2.90
2024-04-18T10:04:38.191Z,3.03
2024-04-18T10:07:06.976Z,3.05
2024-04-18T10:09:37.271Z,3.17
2024-04-18T10:12:06.562Z,2.90
2024-04-18T10:14:35.010Z,3.17
2024-04-18T10:17:10.723Z,3.10
2024-04-18T10:19:43.625Z,2.30
2024-04-18T10:22:23.652Z,2.50
2024-04-18T10:24:58.128Z,3.00
2024-04-18T10:27:26.145Z,2.50
2024-04-18T10:30:01.488Z,2.47
2024-04-18T10:32:33.444Z,3.05
2024-04-18T10:35:01.992Z,2.50
2024-04-18T10:37:29.958Z,2.95
2024-04-18T10:39:59.933Z,2.92
2024-04-18T10:42:28.012Z,3.10
2024-04-18T10:44:57.045Z,2.85
2024-04-18T10:47:25.052Z,3.08
2024-04-18T10:49:53.676Z,2.53
2024-04-18T10:52:21.680Z,2.75
2024-04-18T10:54:50.134Z,2.50
2024-04-18T10:57:19.085Z,2.60
2024-04-18T10:59:53.463Z,2.20
2024-04-18T11:02:21.725Z,2.22
2024-04-18T11:04:50.425Z,2.63
2024-04-18T11:07:20.194Z,2.50
2024-04-18T11:09:48.579Z,2.45
2024-04-18T11:12:16.576Z,2.78
2024-04-18T11:14:45.422Z,3.03
2024-04-18T11:17:13.371Z,3.65
2024-04-18T11:19:41.752Z,3.00
2024-04-18T11:22:09.773Z,2.65
2024-04-18T11:24:38.910Z,2.65
2024-04-18T11:27:09.038Z,2.42
2024-04-18T11:29:38.711Z,2.78
2024-04-18T11:32:06.857Z,2.70
2024-04-18T11:34:35.377Z,3.10
2024-04-18T11:37:04.843Z,2.65
2024-04-18T11:42:01.456Z,2.15
2024-04-18T11:44:30.671Z,2.42
2024-04-18T11:46:58.698Z,2.38
2024-04-18T11:49:27.357Z,2.50
2024-04-18T11:51:55.542Z,2.72
2024-04-18T11:54:23.912Z,3.10
2024-04-18T11:56:51.887Z,3.20
2024-04-18T11:59:33.324Z,3.38
2024-04-18T12:02:01.305Z,3.20
2024-04-18T12:04:29.795Z,3.40
2024-04-18T12:06:57.892Z,3.40
2024-04-18T12:09:29.634Z,3.00
2024-04-18T12:12:02.536Z,2.95
2024-04-18T12:14:49.026Z,3.33
2024-04-18T12:17:30.467Z,3.60
2024-04-18T12:20:18.570Z,3.13
2024-04-18T12:22:47.156Z,3.00
2024-04-18T12:25:16.773Z,3.63
2024-04-18T12:27:45.360Z,2.93
2024-04-18T12:30:32.701Z,3.03
2024-04-18T12:33:19.535Z,2.92
2024-04-18T12:35:49.156Z,3.03
2024-04-18T12:38:17.471Z,3.00
2024-04-18T12:40:48.216Z,5.05
2024-04-18T12:43:19.176Z,3.30
2024-04-18T12:46:06.530Z,3.60
2024-04-18T12:48:52.665Z,3.45
2024-04-18T12:51:21.453Z,3.53
2024-04-18T12:53:49.412Z,3.50
2024-04-18T12:56:19.442Z,3.42
2024-04-18T12:58:47.733Z,3.42
2024-04-18T13:01:16.544Z,3.20
2024-04-18T13:03:46.015Z,3.65
2024-04-18T13:06:33.292Z,3.20
2024-04-18T13:09:21.331Z,3.28
2024-04-18T13:11:49.855Z,3.22
2024-04-18T13:14:17.849Z,3.60
2024-04-18T13:16:47.315Z,3.20
2024-04-18T13:19:15.309Z,3.30
2024-04-18T13:21:43.943Z,3.28
2024-04-18T13:24:14.060Z,3.83
2024-04-18T13:26:55.331Z,3.60
2024-04-18T13:29:26.529Z,3.30
2024-04-18T13:32:15.298Z,3.47
2024-04-18T13:34:43.690Z,3.33
2024-04-18T13:37:12.442Z,4.00
2024-04-18T13:39:51.600Z,3.50
2024-04-18T13:42:20.220Z,3.70
2024-04-18T13:44:54.711Z,3.10
2024-04-18T13:47:46.090Z,3.40
2024-04-18T13:50:14.200Z,3.55
2024-04-18T13:52:42.733Z,3.50
2024-04-18T13:55:10.765Z,3.50
2024-04-18T13:57:39.552Z,3.40
2024-04-18T14:00:23.072Z,3.42
2024-04-18T14:03:10.195Z,3.50
2024-04-18T14:05:58.511Z,3.15
2024-04-18T14:08:40.089Z,3.25
2024-04-18T14:11:28.862Z,3.90
2024-04-18T14:14:09.802Z,3.78
2024-04-18T14:17:15.721Z,4.72
2024-04-18T14:20:04.002Z,4.22
2024-04-18T14:22:33.618Z,3.20
2024-04-18T14:25:02.204Z,3.15
2024-04-18T14:27:38.755Z,3.60
2024-04-18T14:30:27.770Z,3.90
2024-04-18T14:33:11.861Z,3.85
2024-04-18T14:38:08.928Z,4.13
2024-04-18T14:40:37.388Z,4.20
2024-04-18T14:43:11.040Z,4.18
2024-04-18T14:45:47.845Z,4.00
2024-04-18T14:48:18.849Z,4.05
2024-04-18T14:50:53.463Z,3.60
2024-04-18T14:53:41.333Z,3.55
2024-04-18T14:56:09.733Z,3.60
2024-04-18T14:58:39.166Z,3.42
2024-04-18T15:01:23.621Z,3.50
2024-04-18T15:03:51.634Z,3.50
2024-04-18T15:06:20.519Z,3.60
2024-04-18T15:09:08.752Z,3.53
2024-04-18T15:11:56.869Z,4.72
2024-04-18T15:14:38.288Z,3.75
2024-04-18T15:17:10.022Z,3.60
2024-04-18T15:19:38.390Z,3.70
2024-04-18T15:22:25.746Z,3.47
2024-04-18T15:25:13.667Z,3.60
2024-04-18T15:27:42.365Z,3.88
2024-04-18T15:30:10.551Z,3.97
2024-04-18T15:32:39.480Z,4.05
2024-04-18T15:35:22.937Z,3.78
2024-04-18T15:38:10.241Z,3.65
2024-04-18T15:41:00.329Z,3.42
2024-04-18T15:43:36.938Z,4.32
2024-04-18T15:46:05.144Z,4.18
2024-04-18T15:48:33.779Z,4.65
2024-04-18T15:51:01.961Z,4.07
2024-04-18T15:53:33.656Z,4.20
2024-04-18T15:56:08.458Z,4.05
2024-04-18T15:58:55.587Z,3.78
2024-04-18T16:01:24.295Z,4.13
2024-04-18T16:04:11.390Z,5.63
2024-04-18T16:06:58.284Z,4.05
2024-04-18T16:09:45.296Z,4.13
2024-04-18T16:12:22.436Z,3.78
2024-04-18T16:15:04.663Z,4.10
2024-04-18T16:17:34.444Z,3.72
2024-04-18T16:20:13.584Z,3.63
2024-04-18T16:22:42.231Z,3.60
2024-04-18T16:25:30.399Z,3.90
2024-04-18T16:27:59.349Z,3.92
2024-04-18T16:32:59.919Z,3.85
2024-04-18T16:35:28.514Z,3.65
2024-04-18T16:38:15.260Z,3.97
2024-04-18T16:40:53.204Z,4.25
2024-04-18T16:43:37.033Z,3.90
2024-04-18T16:46:07.270Z,3.95
2024-04-18T16:48:35.456Z,3.95
2024-04-18T16:51:04.156Z,4.28
2024-04-18T16:53:54.338Z,5.22
2024-04-18T16:56:26.107Z,4.75
2024-04-18T16:58:54.157Z,4.10
2024-04-18T17:01:23.058Z,4.40
2024-04-18T17:03:51.597Z,4.72
2024-04-18T17:06:41.728Z,4.57
2024-04-18T17:09:15.892Z,5.15
2024-04-18T17:11:44.353Z,5.25
2024-04-18T17:14:39.578Z,4.55
2024-04-18T17:17:07.942Z,4.95
2024-04-18T17:19:54.980Z,6.65
2024-04-18T17:22:23.420Z,6.13
2024-04-18T17:24:51.280Z,5.63
2024-04-18T17:27:19.720Z,5.43
2024-04-18T17:29:47.802Z,5.90
2024-04-18T17:32:16.140Z,5.70
2024-04-18T17:34:44.062Z,5.43
2024-04-18T17:37:12.532Z,6.13
2024-04-18T17:39:53.443Z,5.18
2024-04-18T17:42:22.535Z,5.70
2024-04-18T17:44:56.648Z,5.47
2024-04-18T17:47:29.123Z,6.30
2024-04-18T17:49:57.327Z,6.72
2024-04-18T17:52:28.910Z,7.10
2024-04-18T17:54:59.547Z,6.70
2024-04-18T17:57:29.700Z,8.35
2024-04-18T18:00:16.708Z,8.13
2024-04-18T18:02:45.265Z,7.63
2024-04-18T18:05:33.250Z,8.27
2024-04-18T18:08:21.640Z,7.80
2024-04-18T18:10:49.748Z,6.70
2024-04-18T18:13:18.255Z,7.97
2024-04-18T18:15:46.374Z,7.18
2024-04-18T18:21:24.699Z,12.55
2024-04-18T18:23:53.346Z,14.02
2024-04-18T18:26:41.535Z,13.38
2024-04-18T18:29:10.105Z,25.25
2024-04-18T18:31:56.829Z,18.25
2024-04-18T18:34:25.358Z,17.40
2024-04-18T18:36:53.255Z,16.50
2024-04-18T18:39:21.816Z,16.23
2024-04-18T18:41:49.749Z,16.83
2024-04-18T18:44:18.116Z,15.55
2024-04-18T18:46:45.993Z,33.85
2024-04-18T18:49:17.708Z,26.58
2024-04-18T18:51:46.056Z,31.80
2024-04-18T18:54:14.720Z,34.75
2024-04-18T18:56:42.696Z,33.60
2024-04-18T18:59:29.703Z,32.67
2024-04-18T19:01:57.785Z,30.88
2024-04-18T19:04:26.726Z,37.70
2024-04-18T19:06:54.749Z,37.40
2024-04-18T19:09:23.652Z,40.67
2024-04-18T19:11:51.663Z,53.35
2024-04-18T19:14:19.574Z,48.85
2024-04-18T19:17:07.553Z,46.45
2024-04-18T19:19:35.948Z,47.63
2024-04-18T19:22:04.715Z,44.83
2024-04-18T19:24:32.910Z,48.38
2024-04-18T19:27:04.387Z,48.58
2024-04-18T19:29:40.332Z,68.68
2024-04-18T19:32:16.887Z,90.68
2024-04-18T19:34:45.014Z,90.97
2024-04-18T19:37:13.353Z,85.95
2024-04-18T19:39:41.449Z,84.63
2024-04-18T19:42:09.988Z,69.65
2024-04-18T19:44:37.893Z,65.88
2024-04-18T19:47:07.031Z,59.03
2024-04-18T19:49:38.461Z,59.13
2024-04-18T19:52:08.504Z,54.97
2024-04-18T19:54:39.620Z,57.33
2024-04-18T19:57:09.294Z,58.83
2024-04-18T19:59:39.312Z,113.72
2024-04-18T20:02:08.396Z,88.55
2024-04-18T20:04:39.658Z,173.75
2024-04-18T20:07:08.253Z,116.05
2024-04-18T20:09:36.346Z,86.85
2024-04-18T20:12:06.243Z,72.45
2024-04-18T20:14:39.552Z,62.38
2024-04-18T20:17:07.929Z,128.38
2024-04-18T20:19:36.028Z,46.70
2024-04-18T20:22:04.597Z,39.80
2024-04-18T20:24:32.591Z,35.72
2024-04-18T20:27:19.887Z,32.55
2024-04-18T20:29:48.218Z,33.95
2024-04-18T20:32:24.056Z,32.72
2024-04-18T20:34:52.769Z,36.83
2024-04-18T20:37:21.125Z,44.70
2024-04-18T20:39:49.598Z,47.92
2024-04-18T20:42:17.735Z,41.40
2024-04-18T20:45:03.297Z,51.22
2024-04-18T20:47:33.534Z,39.97
2024-04-18T20:50:03.575Z,38.03
2024-04-18T20:52:33.526Z,53.42
2024-04-18T20:55:02.736Z,46.88
2024-04-18T20:57:32.381Z,48.40
2024-04-18T21:00:01.170Z,42.67
2024-04-18T21:02:29.741Z,40.40
2024-04-18T21:04:58.387Z,34.85
2024-04-18T21:07:26.546Z,30.85
2024-04-18T21:09:55.041Z,22.77
2024-04-18T21:12:25.062Z,21.67
2024-04-18T21:14:54.454Z,22.42
2024-04-18T21:17:22.580Z,17.47
2024-04-18T21:19:51.275Z,17.33
2024-04-18T21:22:19.534Z,17.35
2024-04-18T21:24:48.180Z,17.25
2024-04-18T21:27:16.513Z,16.85
2024-04-18T21:29:45.071Z,18.65
2024-04-18T21:32:15.406Z,18.05
2024-04-18T21:34:44.307Z,16.65
2024-04-18T21:37:12.527Z,15.77
2024-04-18T21:39:41.140Z,15.48
2024-04-18T21:42:09.434Z,15.10
2024-04-18T21:44:39.129Z,14.68
2024-04-18T21:47:07.248Z,15.45
2024-04-18T21:49:35.788Z,15.57
2024-04-18T21:52:03.933Z,14.45
2024-04-18T21:54:32.563Z,13.93
2024-04-18T21:57:05.228Z,13.60
2024-04-18T21:59:33.714Z,12.50
2024-04-18T22:02:01.822Z,12.60
2024-04-18T22:04:30.359Z,12.75
2024-04-18T22:06:58.613Z,12.98
2024-04-18T22:09:27.382Z,13.27
2024-04-18T22:11:55.622Z,13.32
2024-04-18T22:14:24.131Z,12.93
2024-04-18T22:16:52.171Z,13.93
2024-04-18T22:19:20.833Z,13.70
2024-04-18T22:21:49.003Z,12.55
2024-04-18T22:24:17.634Z,14.60
2024-04-18T22:26:45.985Z,14.20
2024-04-18T22:29:14.399Z,13.60
2024-04-18T22:31:42.450Z,15.38
2024-04-18T22:34:21.947Z,14.77
2024-04-18T22:36:56.332Z,14.40
2024-04-18T22:39:24.755Z,13.63
2024-04-18T22:41:52.974Z,13.23
2024-04-18T22:44:21.516Z,13.57
2024-04-18T22:46:49.566Z,13.90
2024-04-18T22:49:18.079Z,13.13
2024-04-18T22:51:46.254Z,13.50
2024-04-18T22:54:14.784Z,12.77
2024-04-18T22:57:02.822Z,11.25
2024-04-18T22:59:31.320Z,12.20
2024-04-18T23:01:59.825Z,12.90
2024-04-18T23:04:28.633Z,13.07
2024-04-18T23:06:56.674Z,14.02
2024-04-18T23:09:25.169Z,14.75
2024-04-18T23:11:53.167Z,15.15
2024-04-18T23:14:21.640Z,15.43
2024-04-18T23:16:49.742Z,14.45
2024-04-18T23:19:18.347Z,14.18
2024-04-18T23:21:46.491Z,15.13
2024-04-18T23:24:33.582Z,14.50
2024-04-18T23:27:01.632Z,14.88
2024-04-18T23:29:31.438Z,13.23
2024-04-18T23:31:59.878Z,13.65
2024-04-18T23:34:28.477Z,13.40
2024-04-18T23:37:03.923Z,13.35
2024-04-18T23:39:32.531Z,12.48
2024-04-18T23:42:00.614Z,14.02
2024-04-18T23:44:29.370Z,13.43
2024-04-18T23:46:58.429Z,13.43
2024-04-18T23:49:26.968Z,13.50
2024-04-18T23:51:55.098Z,11.80
2024-04-18T23:54:23.718Z,13.50
2024-04-18T23:56:51.822Z,13.13
2024-04-18T23:59:20.272Z,13.90
